sensor_id;sensor_type;location;lat;lon;timestamp;P1;P2;P0
64697;PMS5003;51124;53.394;-6.294;2023-12-22T00:01:39;5;5;
64697;PMS5003;51124;53.394;-6.294;2023-12-22T00:04:06;4;4;
64697;PMS5003;51124;53.394;-6.294;2023-12-22T00:06:34;4;4;
64697;PMS5003;51124;53.394;-6.294;2023-12-22T00:09:01;7;5;
64697;PMS5003;51124;53.394;-6.294;2023-12-22T00:11:29;7;5;
64697;PMS5003;51124;53.394;-6.294;2023-12-22T00:13:56;6;6;
64697;PMS5003;51124;53.394;-6.294;2023-12-22T00:16:23;4;4;
64697;PMS5003;51124;53.394;-6.294;2023-12-22T00:18:51;6;6;
64697;PMS5003;51124;53.394;-6.294;2023-12-22T00:21:18;5;3;
64697;PMS5003;51124;53.394;-6.294;2023-12-22T00:23:45;5;4;
64697;PMS5003;51124;53.394;-6.294;2023-12-22T00:26:13;4;4;
64697;PMS5003;51124;53.394;-6.294;2023-12-22T00:28:40;5;5;
64697;PMS5003;51124;53.394;-6.294;2023-12-22T00:31:07;4;4;
64697;PMS5003;51124;53.394;-6.294;2023-12-22T00:33:35;4;4;
64697;PMS5003;51124;53.394;-6.294;2023-12-22T00:36:02;6;5;
64697;PMS5003;51124;53.394;-6.294;2023-12-22T00:38:30;4;4;
64697;PMS5003;51124;53.394;-6.294;2023-12-22T00:40:57;4;4;
64697;PMS5003;51124;53.394;-6.294;2023-12-22T00:43:25;3;3;
64697;PMS5003;51124;53.394;-6.294;2023-12-22T00:45:52;3;3;
64697;PMS5003;51124;53.394;-6.294;2023-12-22T00:48:19;7;6;
64697;PMS5003;51124;53.394;-6.294;2023-12-22T00:50:47;4;4;
64697;PMS5003;51124;53.394;-6.294;2023-12-22T00:53:14;4;3;
64697;PMS5003;51124;53.394;-6.294;2023-12-22T00:55:42;5;5;
64697;PMS5003;51124;53.394;-6.294;2023-12-22T00:58:09;4;4;
64697;PMS5003;51124;53.394;-6.294;2023-12-22T01:00:36;4;4;
64697;PMS5003;51124;53.394;-6.294;2023-12-22T01:03:04;3;3;
64697;PMS5003;51124;53.394;-6.294;2023-12-22T01:05:31;4;4;
64697;PMS5003;51124;53.394;-6.294;2023-12-22T01:07:58;4;4;
64697;PMS5003;51124;53.394;-6.294;2023-12-22T01:10:26;3;3;
64697;PMS5003;51124;53.394;-6.294;2023-12-22T01:12:53;4;4;
64697;PMS5003;51124;53.394;-6.294;2023-12-22T01:15:21;3;3;
64697;PMS5003;51124;53.394;-6.294;2023-12-22T01:17:48;3;3;
64697;PMS5003;51124;53.394;-6.294;2023-12-22T01:20:16;4;4;
64697;PMS5003;51124;53.394;-6.294;2023-12-22T01:22:43;4;3;
64697;PMS5003;51124;53.394;-6.294;2023-12-22T01:25:10;3;3;
64697;PMS5003;51124;53.394;-6.294;2023-12-22T01:27:38;3;3;
64697;PMS5003;51124;53.394;-6.294;2023-12-22T01:30:06;2;2;
64697;PMS5003;51124;53.394;-6.294;2023-12-22T01:32:33;2;2;
64697;PMS5003;51124;53.394;-6.294;2023-12-22T01:35:01;4;4;
64697;PMS5003;51124;53.394;-6.294;2023-12-22T01:37:29;3;3;
64697;PMS5003;51124;53.394;-6.294;2023-12-22T01:39:56;4;4;
64697;PMS5003;51124;53.394;-6.294;2023-12-22T01:42:24;3;3;
64697;PMS5003;51124;53.394;-6.294;2023-12-22T01:44:51;2;2;
64697;PMS5003;51124;53.394;-6.294;2023-12-22T01:47:19;3;3;
64697;PMS5003;51124;53.394;-6.294;2023-12-22T01:49:47;3;3;
64697;PMS5003;51124;53.394;-6.294;2023-12-22T01:52:14;4;4;
64697;PMS5003;51124;53.394;-6.294;2023-12-22T01:54:43;3;2;
64697;PMS5003;51124;53.394;-6.294;2023-12-22T01:57:11;3;3;
64697;PMS5003;51124;53.394;-6.294;2023-12-22T01:59:41;2;2;
64697;PMS5003;51124;53.394;-6.294;2023-12-22T02:02:09;4;3;
64697;PMS5003;51124;53.394;-6.294;2023-12-22T02:04:37;4;3;
64697;PMS5003;51124;53.394;-6.294;2023-12-22T02:07:05;3;3;
64697;PMS5003;51124;53.394;-6.294;2023-12-22T02:09:34;3;3;
64697;PMS5003;51124;53.394;-6.294;2023-12-22T02:12:02;2;2;
64697;PMS5003;51124;53.394;-6.294;2023-12-22T02:14:30;4;3;
64697;PMS5003;51124;53.394;-6.294;2023-12-22T02:17:01;3;3;
64697;PMS5003;51124;53.394;-6.294;2023-12-22T02:19:27;3;3;
64697;PMS5003;51124;53.394;-6.294;2023-12-22T02:22:02;3;3;
64697;PMS5003;51124;53.394;-6.294;2023-12-22T02:24:21;2;2;
64697;PMS5003;51124;53.394;-6.294;2023-12-22T02:26:48;2;2;
64697;PMS5003;51124;53.394;-6.294;2023-12-22T02:29:17;2;2;
64697;PMS5003;51124;53.394;-6.294;2023-12-22T02:31:46;3;3;
64697;PMS5003;51124;53.394;-6.294;2023-12-22T02:34:18;3;3;
64697;PMS5003;51124;53.394;-6.294;2023-12-22T02:36:47;3;3;
64697;PMS5003;51124;53.394;-6.294;2023-12-22T02:39:17;3;3;
64697;PMS5003;51124;53.394;-6.294;2023-12-22T02:41:46;2;2;
64697;PMS5003;51124;53.394;-6.294;2023-12-22T02:44:13;2;2;
64697;PMS5003;51124;53.394;-6.294;2023-12-22T02:46:41;1;1;
64697;PMS5003;51124;53.394;-6.294;2023-12-22T02:49:09;2;2;
64697;PMS5003;51124;53.394;-6.294;2023-12-22T02:51:36;2;1;
64697;PMS5003;51124;53.394;-6.294;2023-12-22T02:54:03;2;2;
64697;PMS5003;51124;53.394;-6.294;2023-12-22T02:56:31;1;1;
64697;PMS5003;51124;53.394;-6.294;2023-12-22T02:58:58;3;3;
64697;PMS5003;51124;53.394;-6.294;2023-12-22T03:01:25;2;2;
64697;PMS5003;51124;53.394;-6.294;2023-12-22T03:03:53;2;2;
64697;PMS5003;51124;53.394;-6.294;2023-12-22T03:06:20;3;3;
64697;PMS5003;51124;53.394;-6.294;2023-12-22T03:08:47;2;2;
64697;PMS5003;51124;53.394;-6.294;2023-12-22T03:11:15;2;2;
64697;PMS5003;51124;53.394;-6.294;2023-12-22T03:13:42;1;1;
64697;PMS5003;51124;53.394;-6.294;2023-12-22T03:16:10;2;2;
64697;PMS5003;51124;53.394;-6.294;2023-12-22T03:18:37;2;2;
64697;PMS5003;51124;53.394;-6.294;2023-12-22T03:21:05;2;2;
64697;PMS5003;51124;53.394;-6.294;2023-12-22T03:23:32;3;3;
64697;PMS5003;51124;53.394;-6.294;2023-12-22T03:26:02;3;3;
64697;PMS5003;51124;53.394;-6.294;2023-12-22T03:28:30;2;2;
64697;PMS5003;51124;53.394;-6.294;2023-12-22T03:30:57;2;2;
64697;PMS5003;51124;53.394;-6.294;2023-12-22T03:33:25;3;2;
64697;PMS5003;51124;53.394;-6.294;2023-12-22T03:35:52;3;3;
64697;PMS5003;51124;53.394;-6.294;2023-12-22T03:38:19;3;2;
64697;PMS5003;51124;53.394;-6.294;2023-12-22T03:40:47;1;1;
64697;PMS5003;51124;53.394;-6.294;2023-12-22T03:43:14;2;2;
64697;PMS5003;51124;53.394;-6.294;2023-12-22T03:45:41;2;2;
64697;PMS5003;51124;53.394;-6.294;2023-12-22T03:48:09;1;1;
64697;PMS5003;51124;53.394;-6.294;2023-12-22T03:50:36;3;2;
64697;PMS5003;51124;53.394;-6.294;2023-12-22T03:53:03;2;2;
64697;PMS5003;51124;53.394;-6.294;2023-12-22T03:55:31;2;2;
64697;PMS5003;51124;53.394;-6.294;2023-12-22T03:57:58;0;0;
64697;PMS5003;51124;53.394;-6.294;2023-12-22T04:00:25;1;1;
64697;PMS5003;51124;53.394;-6.294;2023-12-22T04:02:53;2;2;
64697;PMS5003;51124;53.394;-6.294;2023-12-22T04:05:20;1;1;
64697;PMS5003;51124;53.394;-6.294;2023-12-22T04:07:47;2;2;
64697;PMS5003;51124;53.394;-6.294;2023-12-22T04:10:16;2;2;
64697;PMS5003;51124;53.394;-6.294;2023-12-22T04:12:43;1;1;
64697;PMS5003;51124;53.394;-6.294;2023-12-22T04:15:10;2;2;
64697;PMS5003;51124;53.394;-6.294;2023-12-22T04:17:38;1;1;
64697;PMS5003;51124;53.394;-6.294;2023-12-22T04:20:06;0;0;
64697;PMS5003;51124;53.394;-6.294;2023-12-22T04:22:33;3;1;
64697;PMS5003;51124;53.394;-6.294;2023-12-22T04:25:01;1;1;
64697;PMS5003;51124;53.394;-6.294;2023-12-22T04:27:28;1;1;
64697;PMS5003;51124;53.394;-6.294;2023-12-22T04:29:56;1;1;
64697;PMS5003;51124;53.394;-6.294;2023-12-22T04:32:23;1;1;
64697;PMS5003;51124;53.394;-6.294;2023-12-22T04:34:51;2;2;
64697;PMS5003;51124;53.394;-6.294;2023-12-22T04:37:18;1;0;
64697;PMS5003;51124;53.394;-6.294;2023-12-22T04:39:45;2;1;
64697;PMS5003;51124;53.394;-6.294;2023-12-22T04:42:13;1;1;
64697;PMS5003;51124;53.394;-6.294;2023-12-22T04:44:40;2;2;
64697;PMS5003;51124;53.394;-6.294;2023-12-22T04:47:08;1;1;
64697;PMS5003;51124;53.394;-6.294;2023-12-22T04:49:35;2;0;
64697;PMS5003;51124;53.394;-6.294;2023-12-22T04:52:03;0;0;
64697;PMS5003;51124;53.394;-6.294;2023-12-22T04:54:31;1;1;
64697;PMS5003;51124;53.394;-6.294;2023-12-22T04:56:58;1;1;
64697;PMS5003;51124;53.394;-6.294;2023-12-22T04:59:25;0;0;
64697;PMS5003;51124;53.394;-6.294;2023-12-22T05:01:53;0;0;
64697;PMS5003;51124;53.394;-6.294;2023-12-22T05:04:21;1;1;
64697;PMS5003;51124;53.394;-6.294;2023-12-22T05:06:48;1;1;
64697;PMS5003;51124;53.394;-6.294;2023-12-22T05:09:16;1;1;
64697;PMS5003;51124;53.394;-6.294;2023-12-22T05:11:44;1;1;
64697;PMS5003;51124;53.394;-6.294;2023-12-22T05:14:12;1;1;
64697;PMS5003;51124;53.394;-6.294;2023-12-22T05:16:39;0;0;
64697;PMS5003;51124;53.394;-6.294;2023-12-22T05:19:17;0;0;
64697;PMS5003;51124;53.394;-6.294;2023-12-22T05:21:44;0;0;
64697;PMS5003;51124;53.394;-6.294;2023-12-22T05:24:12;1;1;
64697;PMS5003;51124;53.394;-6.294;2023-12-22T05:26:40;1;1;
64697;PMS5003;51124;53.394;-6.294;2023-12-22T05:29:07;1;1;
64697;PMS5003;51124;53.394;-6.294;2023-12-22T05:31:35;0;0;
64697;PMS5003;51124;53.394;-6.294;2023-12-22T05:34:03;2;0;
64697;PMS5003;51124;53.394;-6.294;2023-12-22T05:36:31;1;1;
64697;PMS5003;51124;53.394;-6.294;2023-12-22T05:38:58;1;1;
64697;PMS5003;51124;53.394;-6.294;2023-12-22T05:41:25;1;1;
64697;PMS5003;51124;53.394;-6.294;2023-12-22T05:43:53;0;0;
64697;PMS5003;51124;53.394;-6.294;2023-12-22T05:46:20;1;1;
64697;PMS5003;51124;53.394;-6.294;2023-12-22T05:48:48;0;0;
64697;PMS5003;51124;53.394;-6.294;2023-12-22T05:51:15;1;1;
64697;PMS5003;51124;53.394;-6.294;2023-12-22T05:53:42;0;0;
64697;PMS5003;51124;53.394;-6.294;2023-12-22T05:56:17;1;1;
64697;PMS5003;51124;53.394;-6.294;2023-12-22T05:58:35;1;1;
64697;PMS5003;51124;53.394;-6.294;2023-12-22T06:01:03;1;1;
64697;PMS5003;51124;53.394;-6.294;2023-12-22T06:03:30;1;1;
64697;PMS5003;51124;53.394;-6.294;2023-12-22T06:05:57;1;1;
64697;PMS5003;51124;53.394;-6.294;2023-12-22T06:08:25;1;1;
64697;PMS5003;51124;53.394;-6.294;2023-12-22T06:10:52;2;0;
64697;PMS5003;51124;53.394;-6.294;2023-12-22T06:13:20;0;0;
64697;PMS5003;51124;53.394;-6.294;2023-12-22T06:15:47;2;2;
64697;PMS5003;51124;53.394;-6.294;2023-12-22T06:18:15;1;1;
64697;PMS5003;51124;53.394;-6.294;2023-12-22T06:20:42;1;1;
64697;PMS5003;51124;53.394;-6.294;2023-12-22T06:23:09;0;0;
64697;PMS5003;51124;53.394;-6.294;2023-12-22T06:25:37;1;1;
64697;PMS5003;51124;53.394;-6.294;2023-12-22T06:28:04;1;1;
64697;PMS5003;51124;53.394;-6.294;2023-12-22T06:30:32;0;0;
64697;PMS5003;51124;53.394;-6.294;2023-12-22T06:32:59;0;0;
64697;PMS5003;51124;53.394;-6.294;2023-12-22T06:35:27;0;0;
64697;PMS5003;51124;53.394;-6.294;2023-12-22T06:37:55;0;0;
64697;PMS5003;51124;53.394;-6.294;2023-12-22T06:40:22;1;1;
64697;PMS5003;51124;53.394;-6.294;2023-12-22T06:42:49;1;1;
64697;PMS5003;51124;53.394;-6.294;2023-12-22T06:45:17;0;0;
64697;PMS5003;51124;53.394;-6.294;2023-12-22T06:47:44;0;0;
64697;PMS5003;51124;53.394;-6.294;2023-12-22T06:50:12;1;1;
64697;PMS5003;51124;53.394;-6.294;2023-12-22T06:52:39;1;1;
64697;PMS5003;51124;53.394;-6.294;2023-12-22T06:55:07;1;1;
64697;PMS5003;51124;53.394;-6.294;2023-12-22T06:57:34;1;1;
64697;PMS5003;51124;53.394;-6.294;2023-12-22T07:00:03;0;0;
64697;PMS5003;51124;53.394;-6.294;2023-12-22T07:02:37;1;1;
64697;PMS5003;51124;53.394;-6.294;2023-12-22T07:05:36;0;0;
64697;PMS5003;51124;53.394;-6.294;2023-12-22T07:07:32;0;0;
64697;PMS5003;51124;53.394;-6.294;2023-12-22T07:10:00;0;0;
64697;PMS5003;51124;53.394;-6.294;2023-12-22T07:12:28;0;0;
64697;PMS5003;51124;53.394;-6.294;2023-12-22T07:14:55;0;0;
64697;PMS5003;51124;53.394;-6.294;2023-12-22T07:17:23;1;1;
64697;PMS5003;51124;53.394;-6.294;2023-12-22T07:19:50;1;1;
64697;PMS5003;51124;53.394;-6.294;2023-12-22T07:22:17;1;1;
64697;PMS5003;51124;53.394;-6.294;2023-12-22T07:24:45;0;0;
64697;PMS5003;51124;53.394;-6.294;2023-12-22T07:27:12;1;1;
64697;PMS5003;51124;53.394;-6.294;2023-12-22T07:29:40;0;0;
64697;PMS5003;51124;53.394;-6.294;2023-12-22T07:32:07;3;1;
64697;PMS5003;51124;53.394;-6.294;2023-12-22T07:34:34;2;1;
64697;PMS5003;51124;53.394;-6.294;2023-12-22T07:37:02;1;0;
64697;PMS5003;51124;53.394;-6.294;2023-12-22T07:39:29;1;1;
64697;PMS5003;51124;53.394;-6.294;2023-12-22T07:41:57;0;0;
64697;PMS5003;51124;53.394;-6.294;2023-12-22T07:44:24;0;0;
64697;PMS5003;51124;53.394;-6.294;2023-12-22T07:46:55;2;0;
64697;PMS5003;51124;53.394;-6.294;2023-12-22T07:49:23;1;1;
64697;PMS5003;51124;53.394;-6.294;2023-12-22T07:51:51;0;0;
64697;PMS5003;51124;53.394;-6.294;2023-12-22T07:54:20;0;0;
64697;PMS5003;51124;53.394;-6.294;2023-12-22T07:56:47;3;1;
64697;PMS5003;51124;53.394;-6.294;2023-12-22T07:59:15;0;0;
64697;PMS5003;51124;53.394;-6.294;2023-12-22T08:01:42;0;0;
64697;PMS5003;51124;53.394;-6.294;2023-12-22T08:04:10;0;0;
64697;PMS5003;51124;53.394;-6.294;2023-12-22T08:06:38;0;0;
64697;PMS5003;51124;53.394;-6.294;2023-12-22T08:09:05;0;0;
64697;PMS5003;51124;53.394;-6.294;2023-12-22T08:11:33;0;0;
64697;PMS5003;51124;53.394;-6.294;2023-12-22T08:14:00;1;0;
64697;PMS5003;51124;53.394;-6.294;2023-12-22T08:16:28;1;0;
64697;PMS5003;51124;53.394;-6.294;2023-12-22T08:18:55;0;0;
64697;PMS5003;51124;53.394;-6.294;2023-12-22T08:21:23;0;0;
64697;PMS5003;51124;53.394;-6.294;2023-12-22T08:23:51;1;1;
64697;PMS5003;51124;53.394;-6.294;2023-12-22T08:26:18;0;0;
64697;PMS5003;51124;53.394;-6.294;2023-12-22T08:28:46;1;1;
64697;PMS5003;51124;53.394;-6.294;2023-12-22T08:31:13;0;0;
64697;PMS5003;51124;53.394;-6.294;2023-12-22T08:33:41;0;0;
64697;PMS5003;51124;53.394;-6.294;2023-12-22T08:36:09;0;0;
64697;PMS5003;51124;53.394;-6.294;2023-12-22T08:38:36;0;0;
64697;PMS5003;51124;53.394;-6.294;2023-12-22T08:41:04;0;0;
64697;PMS5003;51124;53.394;-6.294;2023-12-22T08:43:32;0;0;
64697;PMS5003;51124;53.394;-6.294;2023-12-22T08:45:59;1;1;
64697;PMS5003;51124;53.394;-6.294;2023-12-22T08:48:27;1;1;
64697;PMS5003;51124;53.394;-6.294;2023-12-22T08:50:54;1;1;
64697;PMS5003;51124;53.394;-6.294;2023-12-22T08:53:22;0;0;
64697;PMS5003;51124;53.394;-6.294;2023-12-22T08:55:49;0;0;
64697;PMS5003;51124;53.394;-6.294;2023-12-22T08:58:17;0;0;
64697;PMS5003;51124;53.394;-6.294;2023-12-22T09:00:44;0;0;
64697;PMS5003;51124;53.394;-6.294;2023-12-22T09:03:12;0;0;
64697;PMS5003;51124;53.394;-6.294;2023-12-22T09:05:39;1;1;
64697;PMS5003;51124;53.394;-6.294;2023-12-22T09:08:06;0;0;
64697;PMS5003;51124;53.394;-6.294;2023-12-22T09:10:34;0;0;
64697;PMS5003;51124;53.394;-6.294;2023-12-22T09:13:02;0;0;
64697;PMS5003;51124;53.394;-6.294;2023-12-22T09:15:29;0;0;
64697;PMS5003;51124;53.394;-6.294;2023-12-22T09:17:57;0;0;
64697;PMS5003;51124;53.394;-6.294;2023-12-22T09:20:24;0;0;
64697;PMS5003;51124;53.394;-6.294;2023-12-22T09:22:51;1;1;
64697;PMS5003;51124;53.394;-6.294;2023-12-22T09:25:19;0;0;
64697;PMS5003;51124;53.394;-6.294;2023-12-22T09:27:48;0;0;
64697;PMS5003;51124;53.394;-6.294;2023-12-22T09:30:15;1;1;
64697;PMS5003;51124;53.394;-6.294;2023-12-22T09:32:43;0;0;
64697;PMS5003;51124;53.394;-6.294;2023-12-22T09:35:10;0;0;
64697;PMS5003;51124;53.394;-6.294;2023-12-22T09:37:39;1;0;
64697;PMS5003;51124;53.394;-6.294;2023-12-22T09:40:07;0;0;
64697;PMS5003;51124;53.394;-6.294;2023-12-22T09:42:35;0;0;
64697;PMS5003;51124;53.394;-6.294;2023-12-22T09:45:05;0;0;
64697;PMS5003;51124;53.394;-6.294;2023-12-22T09:47:36;2;0;
64697;PMS5003;51124;53.394;-6.294;2023-12-22T09:50:05;0;0;
64697;PMS5003;51124;53.394;-6.294;2023-12-22T09:52:34;1;1;
64697;PMS5003;51124;53.394;-6.294;2023-12-22T09:55:03;0;0;
64697;PMS5003;51124;53.394;-6.294;2023-12-22T09:57:32;0;0;
64697;PMS5003;51124;53.394;-6.294;2023-12-22T10:00:01;0;0;
64697;PMS5003;51124;53.394;-6.294;2023-12-22T10:02:31;0;0;
64697;PMS5003;51124;53.394;-6.294;2023-12-22T10:05:01;0;0;
64697;PMS5003;51124;53.394;-6.294;2023-12-22T10:07:28;0;0;
64697;PMS5003;51124;53.394;-6.294;2023-12-22T10:09:57;3;0;
64697;PMS5003;51124;53.394;-6.294;2023-12-22T10:12:25;0;0;
64697;PMS5003;51124;53.394;-6.294;2023-12-22T10:14:54;0;0;
64697;PMS5003;51124;53.394;-6.294;2023-12-22T10:17:23;1;1;
64697;PMS5003;51124;53.394;-6.294;2023-12-22T10:19:52;0;0;
64697;PMS5003;51124;53.394;-6.294;2023-12-22T10:22:19;2;2;
64697;PMS5003;51124;53.394;-6.294;2023-12-22T10:24:46;1;1;
64697;PMS5003;51124;53.394;-6.294;2023-12-22T10:27:14;1;1;
64697;PMS5003;51124;53.394;-6.294;2023-12-22T10:29:42;2;0;
64697;PMS5003;51124;53.394;-6.294;2023-12-22T10:32:10;0;0;
64697;PMS5003;51124;53.394;-6.294;2023-12-22T10:34:37;1;1;
64697;PMS5003;51124;53.394;-6.294;2023-12-22T10:37:05;1;1;
64697;PMS5003;51124;53.394;-6.294;2023-12-22T10:39:32;2;2;
64697;PMS5003;51124;53.394;-6.294;2023-12-22T10:42:01;0;0;
64697;PMS5003;51124;53.394;-6.294;2023-12-22T10:44:29;1;1;
64697;PMS5003;51124;53.394;-6.294;2023-12-22T10:46:57;0;0;
64697;PMS5003;51124;53.394;-6.294;2023-12-22T10:49:26;4;2;
64697;PMS5003;51124;53.394;-6.294;2023-12-22T10:51:54;1;1;
64697;PMS5003;51124;53.394;-6.294;2023-12-22T10:54:22;0;0;
64697;PMS5003;51124;53.394;-6.294;2023-12-22T10:56:50;0;0;
64697;PMS5003;51124;53.394;-6.294;2023-12-22T10:59:23;2;1;
64697;PMS5003;51124;53.394;-6.294;2023-12-22T11:01:53;0;0;
64697;PMS5003;51124;53.394;-6.294;2023-12-22T11:04:25;4;2;
64697;PMS5003;51124;53.394;-6.294;2023-12-22T11:06:50;1;1;
64697;PMS5003;51124;53.394;-6.294;2023-12-22T11:09:21;3;1;
64697;PMS5003;51124;53.394;-6.294;2023-12-22T11:11:56;1;1;
64697;PMS5003;51124;53.394;-6.294;2023-12-22T11:14:25;2;2;
64697;PMS5003;51124;53.394;-6.294;2023-12-22T11:16:55;1;1;
64697;PMS5003;51124;53.394;-6.294;2023-12-22T11:19:24;2;2;
64697;PMS5003;51124;53.394;-6.294;2023-12-22T11:21:53;1;1;
64697;PMS5003;51124;53.394;-6.294;2023-12-22T11:24:23;1;1;
64697;PMS5003;51124;53.394;-6.294;2023-12-22T11:26:53;1;1;
64697;PMS5003;51124;53.394;-6.294;2023-12-22T11:29:23;2;2;
64697;PMS5003;51124;53.394;-6.294;2023-12-22T11:31:52;1;1;
64697;PMS5003;51124;53.394;-6.294;2023-12-22T11:34:23;1;1;
64697;PMS5003;51124;53.394;-6.294;2023-12-22T11:36:52;3;2;
64697;PMS5003;51124;53.394;-6.294;2023-12-22T11:39:22;2;1;
64697;PMS5003;51124;53.394;-6.294;2023-12-22T11:41:49;1;1;
64697;PMS5003;51124;53.394;-6.294;2023-12-22T11:44:18;1;1;
64697;PMS5003;51124;53.394;-6.294;2023-12-22T11:46:47;0;0;
64697;PMS5003;51124;53.394;-6.294;2023-12-22T11:49:14;1;1;
64697;PMS5003;51124;53.394;-6.294;2023-12-22T11:51:42;2;2;
64697;PMS5003;51124;53.394;-6.294;2023-12-22T11:54:43;1;1;
64697;PMS5003;51124;53.394;-6.294;2023-12-22T11:56:43;0;0;
64697;PMS5003;51124;53.394;-6.294;2023-12-22T11:59:11;0;0;
64697;PMS5003;51124;53.394;-6.294;2023-12-22T12:01:41;1;1;
64697;PMS5003;51124;53.394;-6.294;2023-12-22T12:04:08;2;2;
64697;PMS5003;51124;53.394;-6.294;2023-12-22T12:06:36;2;1;
64697;PMS5003;51124;53.394;-6.294;2023-12-22T12:09:04;3;1;
64697;PMS5003;51124;53.394;-6.294;2023-12-22T12:12:25;0;0;
64697;PMS5003;51124;53.394;-6.294;2023-12-22T12:14:06;0;0;
64697;PMS5003;51124;53.394;-6.294;2023-12-22T12:16:38;1;1;
64697;PMS5003;51124;53.394;-6.294;2023-12-22T12:19:07;1;1;
64697;PMS5003;51124;53.394;-6.294;2023-12-22T12:21:35;1;1;
64697;PMS5003;51124;53.394;-6.294;2023-12-22T12:24:04;1;0;
64697;PMS5003;51124;53.394;-6.294;2023-12-22T12:26:41;1;1;
64697;PMS5003;51124;53.394;-6.294;2023-12-22T12:29:01;2;2;
64697;PMS5003;51124;53.394;-6.294;2023-12-22T12:31:35;2;2;
64697;PMS5003;51124;53.394;-6.294;2023-12-22T12:34:03;1;1;
64697;PMS5003;51124;53.394;-6.294;2023-12-22T12:36:31;1;1;
64697;PMS5003;51124;53.394;-6.294;2023-12-22T12:39:01;2;1;
64697;PMS5003;51124;53.394;-6.294;2023-12-22T12:41:35;2;1;
64697;PMS5003;51124;53.394;-6.294;2023-12-22T12:44:06;2;2;
64697;PMS5003;51124;53.394;-6.294;2023-12-22T12:46:34;0;0;
64697;PMS5003;51124;53.394;-6.294;2023-12-22T12:49:03;1;1;
64697;PMS5003;51124;53.394;-6.294;2023-12-22T12:51:35;1;1;
64697;PMS5003;51124;53.394;-6.294;2023-12-22T12:54:02;2;2;
64697;PMS5003;51124;53.394;-6.294;2023-12-22T12:56:35;1;1;
64697;PMS5003;51124;53.394;-6.294;2023-12-22T12:59:06;1;1;
64697;PMS5003;51124;53.394;-6.294;2023-12-22T13:01:37;1;1;
64697;PMS5003;51124;53.394;-6.294;2023-12-22T13:04:05;0;0;
64697;PMS5003;51124;53.394;-6.294;2023-12-22T13:06:32;1;1;
64697;PMS5003;51124;53.394;-6.294;2023-12-22T13:09:00;2;2;
64697;PMS5003;51124;53.394;-6.294;2023-12-22T13:11:28;1;1;
64697;PMS5003;51124;53.394;-6.294;2023-12-22T13:13:57;2;2;
64697;PMS5003;51124;53.394;-6.294;2023-12-22T13:16:25;6;2;
64697;PMS5003;51124;53.394;-6.294;2023-12-22T13:18:54;3;1;
64697;PMS5003;51124;53.394;-6.294;2023-12-22T13:21:22;3;2;
64697;PMS5003;51124;53.394;-6.294;2023-12-22T13:24:07;4;2;
64697;PMS5003;51124;53.394;-6.294;2023-12-22T13:26:25;1;1;
64697;PMS5003;51124;53.394;-6.294;2023-12-22T13:28:57;1;1;
64697;PMS5003;51124;53.394;-6.294;2023-12-22T13:31:24;1;1;
64697;PMS5003;51124;53.394;-6.294;2023-12-22T13:33:52;3;2;
64697;PMS5003;51124;53.394;-6.294;2023-12-22T13:36:19;1;1;
64697;PMS5003;51124;53.394;-6.294;2023-12-22T13:38:47;1;1;
64697;PMS5003;51124;53.394;-6.294;2023-12-22T13:41:15;2;2;
64697;PMS5003;51124;53.394;-6.294;2023-12-22T13:43:43;1;1;
64697;PMS5003;51124;53.394;-6.294;2023-12-22T13:46:11;1;1;
64697;PMS5003;51124;53.394;-6.294;2023-12-22T13:48:39;1;1;
64697;PMS5003;51124;53.394;-6.294;2023-12-22T13:51:06;2;1;
64697;PMS5003;51124;53.394;-6.294;2023-12-22T13:53:35;1;1;
64697;PMS5003;51124;53.394;-6.294;2023-12-22T13:56:01;3;2;
64697;PMS5003;51124;53.394;-6.294;2023-12-22T13:58:29;2;1;
64697;PMS5003;51124;53.394;-6.294;2023-12-22T14:00:57;4;3;
64697;PMS5003;51124;53.394;-6.294;2023-12-22T14:03:27;2;2;
64697;PMS5003;51124;53.394;-6.294;2023-12-22T14:05:56;2;2;
64697;PMS5003;51124;53.394;-6.294;2023-12-22T14:08:23;1;1;
64697;PMS5003;51124;53.394;-6.294;2023-12-22T14:10:51;3;3;
64697;PMS5003;51124;53.394;-6.294;2023-12-22T14:13:19;2;2;
64697;PMS5003;51124;53.394;-6.294;2023-12-22T14:15:46;1;1;
64697;PMS5003;51124;53.394;-6.294;2023-12-22T14:18:14;3;3;
64697;PMS5003;51124;53.394;-6.294;2023-12-22T14:20:42;2;0;
64697;PMS5003;51124;53.394;-6.294;2023-12-22T14:23:10;3;2;
64697;PMS5003;51124;53.394;-6.294;2023-12-22T14:25:37;3;2;
64697;PMS5003;51124;53.394;-6.294;2023-12-22T14:28:05;2;1;
64697;PMS5003;51124;53.394;-6.294;2023-12-22T14:30:33;1;1;
64697;PMS5003;51124;53.394;-6.294;2023-12-22T14:33:01;1;0;
64697;PMS5003;51124;53.394;-6.294;2023-12-22T14:35:28;2;1;
64697;PMS5003;51124;53.394;-6.294;2023-12-22T14:37:56;2;2;
64697;PMS5003;51124;53.394;-6.294;2023-12-22T14:40:23;1;1;
64697;PMS5003;51124;53.394;-6.294;2023-12-22T14:42:51;2;2;
64697;PMS5003;51124;53.394;-6.294;2023-12-22T14:45:19;4;2;
64697;PMS5003;51124;53.394;-6.294;2023-12-22T14:47:46;1;1;
64697;PMS5003;51124;53.394;-6.294;2023-12-22T14:50:13;3;3;
64697;PMS5003;51124;53.394;-6.294;2023-12-22T14:52:41;2;1;
64697;PMS5003;51124;53.394;-6.294;2023-12-22T14:55:08;2;2;
64697;PMS5003;51124;53.394;-6.294;2023-12-22T14:57:36;1;1;
64697;PMS5003;51124;53.394;-6.294;2023-12-22T15:00:04;3;3;
64697;PMS5003;51124;53.394;-6.294;2023-12-22T15:02:32;2;2;
64697;PMS5003;51124;53.394;-6.294;2023-12-22T15:04:59;2;2;
64697;PMS5003;51124;53.394;-6.294;2023-12-22T15:07:26;4;2;
64697;PMS5003;51124;53.394;-6.294;2023-12-22T15:09:54;2;2;
64697;PMS5003;51124;53.394;-6.294;2023-12-22T15:12:21;1;1;
64697;PMS5003;51124;53.394;-6.294;2023-12-22T15:14:49;2;2;
64697;PMS5003;51124;53.394;-6.294;2023-12-22T15:17:16;2;2;
64697;PMS5003;51124;53.394;-6.294;2023-12-22T15:19:44;1;1;
64697;PMS5003;51124;53.394;-6.294;2023-12-22T15:22:11;3;3;
64697;PMS5003;51124;53.394;-6.294;2023-12-22T15:24:39;3;3;
64697;PMS5003;51124;53.394;-6.294;2023-12-22T15:27:07;3;3;
64697;PMS5003;51124;53.394;-6.294;2023-12-22T15:29:34;2;2;
64697;PMS5003;51124;53.394;-6.294;2023-12-22T15:32:02;6;3;
64697;PMS5003;51124;53.394;-6.294;2023-12-22T15:34:30;4;2;
64697;PMS5003;51124;53.394;-6.294;2023-12-22T15:36:57;2;2;
64697;PMS5003;51124;53.394;-6.294;2023-12-22T15:39:24;3;3;
64697;PMS5003;51124;53.394;-6.294;2023-12-22T15:41:52;4;4;
64697;PMS5003;51124;53.394;-6.294;2023-12-22T15:44:19;4;4;
64697;PMS5003;51124;53.394;-6.294;2023-12-22T15:46:47;2;2;
64697;PMS5003;51124;53.394;-6.294;2023-12-22T15:49:14;3;2;
64697;PMS5003;51124;53.394;-6.294;2023-12-22T15:51:42;3;3;
64697;PMS5003;51124;53.394;-6.294;2023-12-22T15:54:09;2;2;
64697;PMS5003;51124;53.394;-6.294;2023-12-22T15:56:36;3;3;
64697;PMS5003;51124;53.394;-6.294;2023-12-22T15:59:04;2;2;
64697;PMS5003;51124;53.394;-6.294;2023-12-22T16:01:31;1;1;
64697;PMS5003;51124;53.394;-6.294;2023-12-22T16:03:59;1;1;
64697;PMS5003;51124;53.394;-6.294;2023-12-22T16:06:26;1;1;
64697;PMS5003;51124;53.394;-6.294;2023-12-22T16:08:53;6;3;
64697;PMS5003;51124;53.394;-6.294;2023-12-22T16:11:21;2;2;
64697;PMS5003;51124;53.394;-6.294;2023-12-22T16:13:48;2;2;
64697;PMS5003;51124;53.394;-6.294;2023-12-22T16:16:17;3;2;
64697;PMS5003;51124;53.394;-6.294;2023-12-22T16:18:45;2;2;
64697;PMS5003;51124;53.394;-6.294;2023-12-22T16:21:12;5;4;
64697;PMS5003;51124;53.394;-6.294;2023-12-22T16:23:39;4;2;
64697;PMS5003;51124;53.394;-6.294;2023-12-22T16:26:07;4;3;
64697;PMS5003;51124;53.394;-6.294;2023-12-22T16:28:34;2;2;
64697;PMS5003;51124;53.394;-6.294;2023-12-22T16:31:02;2;2;
64697;PMS5003;51124;53.394;-6.294;2023-12-22T16:33:29;3;3;
64697;PMS5003;51124;53.394;-6.294;2023-12-22T16:35:57;3;2;
64697;PMS5003;51124;53.394;-6.294;2023-12-22T16:38:24;4;2;